sensor_id;sensor_type;location;lat;lon;timestamp;P1;durP1;ratioP1;P2;durP2;ratioP2
5412;SDS011;2729;50.056;8.678;2023-04-06T00:01:40;4.80;;;2.90;;
5412;SDS011;2729;50.056;8.678;2023-04-06T00:04:06;2.87;;;2.47;;
5412;SDS011;2729;50.056;8.678;2023-04-06T00:06:33;4.00;;;3.07;;
5412;SDS011;2729;50.056;8.678;2023-04-06T00:08:59;3.17;;;2.87;;
5412;SDS011;2729;50.056;8.678;2023-04-06T00:11:26;3.47;;;2.77;;
5412;SDS011;2729;50.056;8.678;2023-04-06T00:13:52;5.40;;;2.73;;
5412;SDS011;2729;50.056;8.678;2023-04-06T00:16:18;2.77;;;2.57;;
5412;SDS011;2729;50.056;8.678;2023-04-06T00:18:44;4.13;;;2.70;;
5412;SDS011;2729;50.056;8.678;2023-04-06T00:21:13;25.20;;;2.83;;
5412;SDS011;2729;50.056;8.678;2023-04-06T00:23:40;6.40;;;3.13;;
5412;SDS011;2729;50.056;8.678;2023-04-06T00:26:07;3.23;;;2.60;;
5412;SDS011;2729;50.056;8.678;2023-04-06T00:28:34;2.70;;;2.50;;
5412;SDS011;2729;50.056;8.678;2023-04-06T00:30:59;6.60;;;2.80;;
5412;SDS011;2729;50.056;8.678;2023-04-06T00:33:25;4.77;;;2.47;;
5412;SDS011;2729;50.056;8.678;2023-04-06T00:35:51;3.20;;;2.90;;
5412;SDS011;2729;50.056;8.678;2023-04-06T00:38:17;4.07;;;3.70;;
5412;SDS011;2729;50.056;8.678;2023-04-06T00:40:43;2.93;;;2.60;;
5412;SDS011;2729;50.056;8.678;2023-04-06T00:43:10;3.80;;;2.67;;
5412;SDS011;2729;50.056;8.678;2023-04-06T00:45:40;3.73;;;2.90;;
5412;SDS011;2729;50.056;8.678;2023-04-06T00:48:07;2.90;;;2.70;;
5412;SDS011;2729;50.056;8.678;2023-04-06T00:50:34;7.33;;;3.07;;
5412;SDS011;2729;50.056;8.678;2023-04-06T00:53:00;3.50;;;2.87;;
5412;SDS011;2729;50.056;8.678;2023-04-06T00:55:27;2.80;;;2.53;;
5412;SDS011;2729;50.056;8.678;2023-04-06T00:57:58;2.40;;;2.20;;
5412;SDS011;2729;50.056;8.678;2023-04-06T01:00:27;2.73;;;2.57;;
5412;SDS011;2729;50.056;8.678;2023-04-06T01:02:57;4.70;;;2.80;;
5412;SDS011;2729;50.056;8.678;2023-04-06T01:05:33;2.60;;;2.40;;
5412;SDS011;2729;50.056;8.678;2023-04-06T01:08:00;5.00;;;3.30;;
5412;SDS011;2729;50.056;8.678;2023-04-06T01:10:28;5.60;;;2.70;;
5412;SDS011;2729;50.056;8.678;2023-04-06T01:13:03;3.20;;;3.00;;
5412;SDS011;2729;50.056;8.678;2023-04-06T01:15:48;5.93;;;3.83;;
5412;SDS011;2729;50.056;8.678;2023-04-06T01:18:25;3.20;;;2.90;;
5412;SDS011;2729;50.056;8.678;2023-04-06T01:20:57;4.23;;;2.63;;
5412;SDS011;2729;50.056;8.678;2023-04-06T01:23:26;4.23;;;3.03;;
5412;SDS011;2729;50.056;8.678;2023-04-06T01:25:52;5.37;;;3.13;;
5412;SDS011;2729;50.056;8.678;2023-04-06T01:28:18;3.10;;;2.80;;
5412;SDS011;2729;50.056;8.678;2023-04-06T01:30:55;2.83;;;2.63;;
5412;SDS011;2729;50.056;8.678;2023-04-06T01:33:43;3.23;;;3.03;;
5412;SDS011;2729;50.056;8.678;2023-04-06T01:36:13;4.00;;;3.20;;
5412;SDS011;2729;50.056;8.678;2023-04-06T01:38:40;5.83;;;3.30;;
5412;SDS011;2729;50.056;8.678;2023-04-06T01:41:07;3.07;;;2.80;;
5412;SDS011;2729;50.056;8.678;2023-04-06T01:43:45;9.57;;;4.00;;
5412;SDS011;2729;50.056;8.678;2023-04-06T01:46:11;6.20;;;3.30;;
5412;SDS011;2729;50.056;8.678;2023-04-06T01:48:40;2.67;;;2.47;;
5412;SDS011;2729;50.056;8.678;2023-04-06T01:51:16;9.40;;;3.77;;
5412;SDS011;2729;50.056;8.678;2023-04-06T01:53:49;3.00;;;2.63;;
5412;SDS011;2729;50.056;8.678;2023-04-06T01:56:17;3.47;;;3.10;;
5412;SDS011;2729;50.056;8.678;2023-04-06T01:58:51;16.83;;;3.93;;
5412;SDS011;2729;50.056;8.678;2023-04-06T02:01:17;4.70;;;3.30;;
5412;SDS011;2729;50.056;8.678;2023-04-06T02:03:52;3.60;;;2.90;;
5412;SDS011;2729;50.056;8.678;2023-04-06T02:06:18;5.60;;;3.80;;
5412;SDS011;2729;50.056;8.678;2023-04-06T02:08:44;4.50;;;3.80;;
5412;SDS011;2729;50.056;8.678;2023-04-06T02:11:10;3.37;;;3.00;;
5412;SDS011;2729;50.056;8.678;2023-04-06T02:13:42;3.80;;;3.50;;
5412;SDS011;2729;50.056;8.678;2023-04-06T02:16:09;3.10;;;2.90;;
5412;SDS011;2729;50.056;8.678;2023-04-06T02:18:35;6.10;;;3.63;;
5412;SDS011;2729;50.056;8.678;2023-04-06T02:21:01;8.23;;;4.10;;
5412;SDS011;2729;50.056;8.678;2023-04-06T02:23:28;7.57;;;4.13;;
5412;SDS011;2729;50.056;8.678;2023-04-06T02:25:56;3.40;;;3.10;;
5412;SDS011;2729;50.056;8.678;2023-04-06T02:28:22;4.17;;;3.03;;
5412;SDS011;2729;50.056;8.678;2023-04-06T02:30:48;14.30;;;4.67;;
5412;SDS011;2729;50.056;8.678;2023-04-06T02:33:14;4.97;;;3.20;;
5412;SDS011;2729;50.056;8.678;2023-04-06T02:35:44;9.20;;;3.50;;
5412;SDS011;2729;50.056;8.678;2023-04-06T02:38:11;7.13;;;4.00;;
5412;SDS011;2729;50.056;8.678;2023-04-06T02:40:37;5.13;;;3.90;;
5412;SDS011;2729;50.056;8.678;2023-04-06T02:43:35;4.97;;;4.47;;
5412;SDS011;2729;50.056;8.678;2023-04-06T02:46:06;7.80;;;5.00;;
5412;SDS011;2729;50.056;8.678;2023-04-06T02:48:36;7.83;;;4.90;;
5412;SDS011;2729;50.056;8.678;2023-04-06T02:51:02;4.93;;;3.90;;
5412;SDS011;2729;50.056;8.678;2023-04-06T02:53:29;10.47;;;3.93;;
5412;SDS011;2729;50.056;8.678;2023-04-06T02:55:55;4.50;;;4.10;;
5412;SDS011;2729;50.056;8.678;2023-04-06T02:58:25;4.63;;;4.10;;
5412;SDS011;2729;50.056;8.678;2023-04-06T03:00:54;13.83;;;3.90;;
5412;SDS011;2729;50.056;8.678;2023-04-06T03:03:20;10.00;;;3.97;;
5412;SDS011;2729;50.056;8.678;2023-04-06T03:05:46;7.30;;;4.00;;
5412;SDS011;2729;50.056;8.678;2023-04-06T03:08:15;4.60;;;3.80;;
5412;SDS011;2729;50.056;8.678;2023-04-06T03:10:44;6.40;;;4.03;;
5412;SDS011;2729;50.056;8.678;2023-04-06T03:13:10;6.33;;;3.53;;
5412;SDS011;2729;50.056;8.678;2023-04-06T03:15:43;6.83;;;4.27;;
5412;SDS011;2729;50.056;8.678;2023-04-06T03:18:14;12.27;;;5.00;;
5412;SDS011;2729;50.056;8.678;2023-04-06T03:20:44;12.40;;;4.03;;
5412;SDS011;2729;50.056;8.678;2023-04-06T03:23:10;4.33;;;3.63;;
5412;SDS011;2729;50.056;8.678;2023-04-06T03:25:39;4.10;;;3.70;;
5412;SDS011;2729;50.056;8.678;2023-04-06T03:28:08;5.83;;;4.17;;
5412;SDS011;2729;50.056;8.678;2023-04-06T03:30:40;3.50;;;3.20;;
5412;SDS011;2729;50.056;8.678;2023-04-06T03:33:06;3.47;;;3.20;;
5412;SDS011;2729;50.056;8.678;2023-04-06T03:35:38;7.43;;;3.93;;
5412;SDS011;2729;50.056;8.678;2023-04-06T03:38:04;6.23;;;4.23;;
5412;SDS011;2729;50.056;8.678;2023-04-06T03:40:30;12.70;;;4.30;;
5412;SDS011;2729;50.056;8.678;2023-04-06T03:42:56;3.97;;;3.50;;
5412;SDS011;2729;50.056;8.678;2023-04-06T03:45:23;5.33;;;4.07;;
5412;SDS011;2729;50.056;8.678;2023-04-06T03:47:50;4.43;;;4.03;;
5412;SDS011;2729;50.056;8.678;2023-04-06T03:50:16;4.67;;;4.20;;
5412;SDS011;2729;50.056;8.678;2023-04-06T03:52:43;5.17;;;3.80;;
5412;SDS011;2729;50.056;8.678;2023-04-06T03:55:09;7.67;;;4.10;;
5412;SDS011;2729;50.056;8.678;2023-04-06T03:57:36;4.37;;;3.97;;
5412;SDS011;2729;50.056;8.678;2023-04-06T04:00:03;4.00;;;3.63;;
5412;SDS011;2729;50.056;8.678;2023-04-06T04:02:38;14.40;;;3.47;;
5412;SDS011;2729;50.056;8.678;2023-04-06T04:05:04;5.47;;;4.20;;
5412;SDS011;2729;50.056;8.678;2023-04-06T04:07:30;7.70;;;4.60;;
5412;SDS011;2729;50.056;8.678;2023-04-06T04:09:56;5.20;;;4.60;;
5412;SDS011;2729;50.056;8.678;2023-04-06T04:12:22;4.83;;;3.97;;
5412;SDS011;2729;50.056;8.678;2023-04-06T04:14:48;4.57;;;4.10;;
5412;SDS011;2729;50.056;8.678;2023-04-06T04:17:14;6.13;;;4.30;;
5412;SDS011;2729;50.056;8.678;2023-04-06T04:19:40;10.77;;;4.10;;
5412;SDS011;2729;50.056;8.678;2023-04-06T04:22:07;6.23;;;4.40;;
5412;SDS011;2729;50.056;8.678;2023-04-06T04:24:37;10.10;;;4.60;;
5412;SDS011;2729;50.056;8.678;2023-04-06T04:27:03;6.27;;;4.20;;
5412;SDS011;2729;50.056;8.678;2023-04-06T04:29:31;6.83;;;4.73;;
5412;SDS011;2729;50.056;8.678;2023-04-06T04:32:01;8.03;;;4.50;;
5412;SDS011;2729;50.056;8.678;2023-04-06T04:34:29;6.90;;;4.40;;
5412;SDS011;2729;50.056;8.678;2023-04-06T04:36:55;5.03;;;3.83;;
5412;SDS011;2729;50.056;8.678;2023-04-06T04:39:32;9.43;;;4.70;;
5412;SDS011;2729;50.056;8.678;2023-04-06T04:42:03;9.90;;;4.60;;
5412;SDS011;2729;50.056;8.678;2023-04-06T04:44:31;11.20;;;5.00;;
5412;SDS011;2729;50.056;8.678;2023-04-06T04:46:57;7.10;;;4.60;;
5412;SDS011;2729;50.056;8.678;2023-04-06T04:49:30;17.53;;;4.43;;
5412;SDS011;2729;50.056;8.678;2023-04-06T04:51:56;8.13;;;4.97;;
5412;SDS011;2729;50.056;8.678;2023-04-06T04:54:29;9.20;;;5.30;;
5412;SDS011;2729;50.056;8.678;2023-04-06T04:56:55;7.23;;;5.27;;
5412;SDS011;2729;50.056;8.678;2023-04-06T04:59:30;8.47;;;4.70;;
5412;SDS011;2729;50.056;8.678;2023-04-06T05:02:01;9.00;;;5.53;;
5412;SDS011;2729;50.056;8.678;2023-04-06T05:04:37;7.03;;;4.80;;
5412;SDS011;2729;50.056;8.678;2023-04-06T05:07:08;9.63;;;5.57;;
5412;SDS011;2729;50.056;8.678;2023-04-06T05:09:37;4.63;;;4.13;;
5412;SDS011;2729;50.056;8.678;2023-04-06T05:12:03;11.03;;;4.20;;
5412;SDS011;2729;50.056;8.678;2023-04-06T05:14:34;6.10;;;4.37;;
5412;SDS011;2729;50.056;8.678;2023-04-06T05:17:04;6.43;;;4.23;;
5412;SDS011;2729;50.056;8.678;2023-04-06T05:19:30;5.67;;;4.23;;
5412;SDS011;2729;50.056;8.678;2023-04-06T05:21:56;7.23;;;4.53;;
5412;SDS011;2729;50.056;8.678;2023-04-06T05:24:23;4.27;;;3.57;;
5412;SDS011;2729;50.056;8.678;2023-04-06T05:26:49;5.40;;;4.80;;
5412;SDS011;2729;50.056;8.678;2023-04-06T05:29:20;6.07;;;4.53;;
5412;SDS011;2729;50.056;8.678;2023-04-06T05:31:46;5.30;;;4.53;;
5412;SDS011;2729;50.056;8.678;2023-04-06T05:34:13;5.23;;;4.17;;
5412;SDS011;2729;50.056;8.678;2023-04-06T05:36:39;9.20;;;4.70;;
5412;SDS011;2729;50.056;8.678;2023-04-06T05:39:15;9.60;;;5.40;;
5412;SDS011;2729;50.056;8.678;2023-04-06T05:41:44;6.80;;;4.80;;
5412;SDS011;2729;50.056;8.678;2023-04-06T05:44:11;6.37;;;4.77;;
5412;SDS011;2729;50.056;8.678;2023-04-06T05:46:40;5.93;;;4.87;;
5412;SDS011;2729;50.056;8.678;2023-04-06T05:49:11;4.47;;;3.50;;
5412;SDS011;2729;50.056;8.678;2023-04-06T05:51:38;8.37;;;5.40;;
5412;SDS011;2729;50.056;8.678;2023-04-06T05:54:04;8.27;;;4.73;;
5412;SDS011;2729;50.056;8.678;2023-04-06T05:56:30;6.07;;;4.47;;
5412;SDS011;2729;50.056;8.678;2023-04-06T05:58:57;5.93;;;5.20;;
5412;SDS011;2729;50.056;8.678;2023-04-06T06:01:27;6.80;;;4.60;;
5412;SDS011;2729;50.056;8.678;2023-04-06T06:03:54;6.67;;;5.13;;
5412;SDS011;2729;50.056;8.678;2023-04-06T06:06:22;9.80;;;4.47;;
5412;SDS011;2729;50.056;8.678;2023-04-06T06:09:06;9.97;;;5.40;;
5412;SDS011;2729;50.056;8.678;2023-04-06T06:11:37;6.90;;;4.70;;
5412;SDS011;2729;50.056;8.678;2023-04-06T06:14:04;7.17;;;5.40;;
5412;SDS011;2729;50.056;8.678;2023-04-06T06:16:33;10.70;;;4.80;;
5412;SDS011;2729;50.056;8.678;2023-04-06T06:19:00;9.30;;;5.33;;
5412;SDS011;2729;50.056;8.678;2023-04-06T06:21:26;7.30;;;5.30;;
5412;SDS011;2729;50.056;8.678;2023-04-06T06:23:52;18.57;;;6.77;;
5412;SDS011;2729;50.056;8.678;2023-04-06T06:26:20;6.20;;;4.57;;
5412;SDS011;2729;50.056;8.678;2023-04-06T06:28:46;8.43;;;5.27;;
5412;SDS011;2729;50.056;8.678;2023-04-06T06:31:13;6.10;;;5.20;;
5412;SDS011;2729;50.056;8.678;2023-04-06T06:33:39;13.20;;;5.73;;
5412;SDS011;2729;50.056;8.678;2023-04-06T06:36:05;7.10;;;5.50;;
5412;SDS011;2729;50.056;8.678;2023-04-06T06:38:31;7.63;;;5.57;;
5412;SDS011;2729;50.056;8.678;2023-04-06T06:40:57;7.80;;;5.97;;
5412;SDS011;2729;50.056;8.678;2023-04-06T06:43:26;8.07;;;5.57;;
5412;SDS011;2729;50.056;8.678;2023-04-06T06:45:59;7.37;;;5.17;;
5412;SDS011;2729;50.056;8.678;2023-04-06T06:48:25;11.83;;;5.43;;
5412;SDS011;2729;50.056;8.678;2023-04-06T06:50:51;9.43;;;6.50;;
5412;SDS011;2729;50.056;8.678;2023-04-06T06:53:17;9.17;;;6.60;;
5412;SDS011;2729;50.056;8.678;2023-04-06T06:55:43;11.20;;;6.57;;
5412;SDS011;2729;50.056;8.678;2023-04-06T06:58:09;7.07;;;5.00;;
5412;SDS011;2729;50.056;8.678;2023-04-06T07:00:35;10.00;;;5.93;;
5412;SDS011;2729;50.056;8.678;2023-04-06T07:03:01;9.50;;;6.30;;
5412;SDS011;2729;50.056;8.678;2023-04-06T07:05:27;10.10;;;6.47;;
5412;SDS011;2729;50.056;8.678;2023-04-06T07:07:55;12.03;;;6.47;;
5412;SDS011;2729;50.056;8.678;2023-04-06T07:10:21;18.80;;;6.00;;
5412;SDS011;2729;50.056;8.678;2023-04-06T07:12:47;7.23;;;5.57;;
5412;SDS011;2729;50.056;8.678;2023-04-06T07:15:13;9.90;;;6.63;;
5412;SDS011;2729;50.056;8.678;2023-04-06T07:17:39;10.90;;;6.90;;
5412;SDS011;2729;50.056;8.678;2023-04-06T07:20:07;8.83;;;6.13;;
5412;SDS011;2729;50.056;8.678;2023-04-06T07:22:34;8.40;;;6.30;;
5412;SDS011;2729;50.056;8.678;2023-04-06T07:24:59;9.27;;;6.00;;
5412;SDS011;2729;50.056;8.678;2023-04-06T07:27:25;13.30;;;6.33;;
5412;SDS011;2729;50.056;8.678;2023-04-06T07:29:51;12.43;;;6.80;;
5412;SDS011;2729;50.056;8.678;2023-04-06T07:32:17;8.57;;;6.40;;
5412;SDS011;2729;50.056;8.678;2023-04-06T07:34:43;15.47;;;6.17;;
5412;SDS011;2729;50.056;8.678;2023-04-06T07:37:10;14.00;;;6.30;;
5412;SDS011;2729;50.056;8.678;2023-04-06T07:39:36;12.37;;;6.30;;
5412;SDS011;2729;50.056;8.678;2023-04-06T07:42:02;16.93;;;7.00;;
5412;SDS011;2729;50.056;8.678;2023-04-06T07:44:28;9.47;;;6.10;;
5412;SDS011;2729;50.056;8.678;2023-04-06T07:46:55;11.20;;;6.50;;
5412;SDS011;2729;50.056;8.678;2023-04-06T07:49:22;8.63;;;5.63;;
5412;SDS011;2729;50.056;8.678;2023-04-06T07:51:49;7.40;;;6.00;;
5412;SDS011;2729;50.056;8.678;2023-04-06T07:54:15;10.50;;;6.47;;
5412;SDS011;2729;50.056;8.678;2023-04-06T07:56:40;12.43;;;6.10;;
5412;SDS011;2729;50.056;8.678;2023-04-06T07:59:06;12.20;;;5.37;;
5412;SDS011;2729;50.056;8.678;2023-04-06T08:01:32;9.90;;;5.90;;
5412;SDS011;2729;50.056;8.678;2023-04-06T08:03:58;11.17;;;5.70;;
5412;SDS011;2729;50.056;8.678;2023-04-06T08:06:26;8.80;;;6.00;;
5412;SDS011;2729;50.056;8.678;2023-04-06T08:08:52;8.43;;;5.97;;
5412;SDS011;2729;50.056;8.678;2023-04-06T08:11:18;7.23;;;5.40;;
5412;SDS011;2729;50.056;8.678;2023-04-06T08:13:44;11.20;;;6.17;;
5412;SDS011;2729;50.056;8.678;2023-04-06T08:16:10;11.67;;;6.40;;
5412;SDS011;2729;50.056;8.678;2023-04-06T08:18:36;6.87;;;5.40;;
5412;SDS011;2729;50.056;8.678;2023-04-06T08:21:02;8.60;;;5.97;;
5412;SDS011;2729;50.056;8.678;2023-04-06T08:23:28;9.50;;;6.10;;
5412;SDS011;2729;50.056;8.678;2023-04-06T08:25:54;9.67;;;6.40;;
5412;SDS011;2729;50.056;8.678;2023-04-06T08:28:20;7.33;;;5.73;;
5412;SDS011;2729;50.056;8.678;2023-04-06T08:30:46;8.27;;;5.97;;
5412;SDS011;2729;50.056;8.678;2023-04-06T08:33:12;10.90;;;5.70;;
5412;SDS011;2729;50.056;8.678;2023-04-06T08:35:38;13.87;;;6.13;;
5412;SDS011;2729;50.056;8.678;2023-04-06T08:38:05;8.20;;;6.30;;
5412;SDS011;2729;50.056;8.678;2023-04-06T08:40:38;12.43;;;6.70;;
5412;SDS011;2729;50.056;8.678;2023-04-06T08:43:08;10.57;;;6.70;;
5412;SDS011;2729;50.056;8.678;2023-04-06T08:45:38;10.93;;;6.40;;
5412;SDS011;2729;50.056;8.678;2023-04-06T08:48:05;8.80;;;6.10;;
5412;SDS011;2729;50.056;8.678;2023-04-06T08:50:32;10.03;;;6.53;;
5412;SDS011;2729;50.056;8.678;2023-04-06T08:52:59;8.93;;;5.67;;
5412;SDS011;2729;50.056;8.678;2023-04-06T08:55:26;11.10;;;6.40;;
5412;SDS011;2729;50.056;8.678;2023-04-06T08:57:52;9.47;;;6.70;;
5412;SDS011;2729;50.056;8.678;2023-04-06T09:00:20;7.50;;;5.87;;
5412;SDS011;2729;50.056;8.678;2023-04-06T09:02:47;10.53;;;6.23;;
5412;SDS011;2729;50.056;8.678;2023-04-06T09:05:15;10.70;;;6.00;;
5412;SDS011;2729;50.056;8.678;2023-04-06T09:07:41;9.33;;;5.17;;
5412;SDS011;2729;50.056;8.678;2023-04-06T09:10:07;9.03;;;5.50;;
5412;SDS011;2729;50.056;8.678;2023-04-06T09:12:34;12.70;;;6.33;;
5412;SDS011;2729;50.056;8.678;2023-04-06T09:15:00;7.43;;;5.30;;
5412;SDS011;2729;50.056;8.678;2023-04-06T09:17:31;8.30;;;5.67;;
5412;SDS011;2729;50.056;8.678;2023-04-06T09:19:59;9.80;;;5.60;;
5412;SDS011;2729;50.056;8.678;2023-04-06T09:22:34;7.73;;;5.47;;
5412;SDS011;2729;50.056;8.678;2023-04-06T09:25:01;8.80;;;5.77;;
5412;SDS011;2729;50.056;8.678;2023-04-06T09:27:33;12.10;;;5.50;;
5412;SDS011;2729;50.056;8.678;2023-04-06T09:30:08;7.57;;;5.00;;
5412;SDS011;2729;50.056;8.678;2023-04-06T09:32:49;7.23;;;5.30;;
5412;SDS011;2729;50.056;8.678;2023-04-06T09:35:16;15.00;;;5.83;;
5412;SDS011;2729;50.056;8.678;2023-04-06T09:37:43;9.00;;;5.17;;
5412;SDS011;2729;50.056;8.678;2023-04-06T09:40:09;12.47;;;6.13;;
5412;SDS011;2729;50.056;8.678;2023-04-06T09:42:35;9.10;;;5.27;;
5412;SDS011;2729;50.056;8.678;2023-04-06T09:45:02;10.73;;;5.37;;
5412;SDS011;2729;50.056;8.678;2023-04-06T09:47:32;11.60;;;6.03;;
5412;SDS011;2729;50.056;8.678;2023-04-06T09:50:01;9.00;;;5.43;;
5412;SDS011;2729;50.056;8.678;2023-04-06T09:52:32;8.40;;;5.07;;
5412;SDS011;2729;50.056;8.678;2023-04-06T09:55:04;11.90;;;5.27;;
5412;SDS011;2729;50.056;8.678;2023-04-06T09:57:37;8.73;;;5.03;;
5412;SDS011;2729;50.056;8.678;2023-04-06T10:00:11;10.37;;;5.63;;
5412;SDS011;2729;50.056;8.678;2023-04-06T10:05:34;15.13;;;5.00;;
5412;SDS011;2729;50.056;8.678;2023-04-06T10:08:18;17.50;;;5.50;;
5412;SDS011;2729;50.056;8.678;2023-04-06T10:10:46;11.17;;;6.00;;
5412;SDS011;2729;50.056;8.678;2023-04-06T10:13:12;9.90;;;5.03;;
5412;SDS011;2729;50.056;8.678;2023-04-06T10:15:38;7.83;;;5.23;;
5412;SDS011;2729;50.056;8.678;2023-04-06T10:18:07;11.70;;;5.77;;
5412;SDS011;2729;50.056;8.678;2023-04-06T10:20:41;10.57;;;5.57;;
5412;SDS011;2729;50.056;8.678;2023-04-06T10:26:21;9.43;;;4.63;;
5412;SDS011;2729;50.056;8.678;2023-04-06T10:28:47;6.73;;;4.67;;
5412;SDS011;2729;50.056;8.678;2023-04-06T10:31:14;5.13;;;3.20;;
5412;SDS011;2729;50.056;8.678;2023-04-06T10:33:41;7.90;;;4.13;;
5412;SDS011;2729;50.056;8.678;2023-04-06T10:36:14;10.20;;;5.03;;
5412;SDS011;2729;50.056;8.678;2023-04-06T10:38:53;8.33;;;4.90;;
5412;SDS011;2729;50.056;8.678;2023-04-06T10:41:20;8.00;;;5.10;;
5412;SDS011;2729;50.056;8.678;2023-04-06T10:43:54;9.33;;;4.30;;
5412;SDS011;2729;50.056;8.678;2023-04-06T10:46:25;8.47;;;4.93;;
5412;SDS011;2729;50.056;8.678;2023-04-06T10:48:52;5.57;;;3.73;;
5412;SDS011;2729;50.056;8.678;2023-04-06T10:51:18;8.93;;;5.07;;
5412;SDS011;2729;50.056;8.678;2023-04-06T10:53:49;8.40;;;4.77;;
5412;SDS011;2729;50.056;8.678;2023-04-06T10:56:16;12.90;;;4.80;;
5412;SDS011;2729;50.056;8.678;2023-04-06T10:58:43;8.80;;;4.70;;
5412;SDS011;2729;50.056;8.678;2023-04-06T11:01:12;9.90;;;4.77;;
5412;SDS011;2729;50.056;8.678;2023-04-06T11:03:46;6.30;;;4.00;;
5412;SDS011;2729;50.056;8.678;2023-04-06T11:06:26;12.43;;;5.70;;
5412;SDS011;2729;50.056;8.678;2023-04-06T11:08:55;8.33;;;4.67;;
5412;SDS011;2729;50.056;8.678;2023-04-06T11:11:22;8.50;;;4.83;;
5412;SDS011;2729;50.056;8.678;2023-04-06T11:13:53;8.67;;;4.87;;
5412;SDS011;2729;50.056;8.678;2023-04-06T11:16:25;5.80;;;3.80;;
5412;SDS011;2729;50.056;8.678;2023-04-06T11:18:53;9.33;;;4.80;;
5412;SDS011;2729;50.056;8.678;2023-04-06T11:26:36;7.03;;;3.90;;
5412;SDS011;2729;50.056;8.678;2023-04-06T11:29:18;6.33;;;3.97;;
5412;SDS011;2729;50.056;8.678;2023-04-06T11:31:49;11.00;;;5.60;;
5412;SDS011;2729;50.056;8.678;2023-04-06T11:34:20;7.83;;;4.47;;
5412;SDS011;2729;50.056;8.678;2023-04-06T11:36:47;5.23;;;3.10;;
5412;SDS011;2729;50.056;8.678;2023-04-06T11:39:18;8.53;;;5.20;;
5412;SDS011;2729;50.056;8.678;2023-04-06T11:41:52;4.37;;;3.43;;
5412;SDS011;2729;50.056;8.678;2023-04-06T11:47:05;10.10;;;4.67;;
5412;SDS011;2729;50.056;8.678;2023-04-06T11:49:33;9.37;;;4.90;;
5412;SDS011;2729;50.056;8.678;2023-04-06T11:52:02;7.70;;;4.43;;
5412;SDS011;2729;50.056;8.678;2023-04-06T11:54:39;6.30;;;3.63;;
5412;SDS011;2729;50.056;8.678;2023-04-06T11:57:07;12.93;;;5.50;;
5412;SDS011;2729;50.056;8.678;2023-04-06T11:59:34;10.30;;;5.30;;
5412;SDS011;2729;50.056;8.678;2023-04-06T12:02:01;7.83;;;5.00;;
5412;SDS011;2729;50.056;8.678;2023-04-06T12:04:28;9.47;;;4.80;;
5412;SDS011;2729;50.056;8.678;2023-04-06T12:06:55;7.20;;;4.50;;
5412;SDS011;2729;50.056;8.678;2023-04-06T12:09:21;8.87;;;5.10;;
5412;SDS011;2729;50.056;8.678;2023-04-06T12:11:47;12.07;;;6.03;;
5412;SDS011;2729;50.056;8.678;2023-04-06T12:14:13;9.23;;;5.00;;
5412;SDS011;2729;50.056;8.678;2023-04-06T12:16:39;8.87;;;5.23;;
5412;SDS011;2729;50.056;8.678;2023-04-06T12:19:06;8.03;;;5.03;;
5412;SDS011;2729;50.056;8.678;2023-04-06T12:21:34;7.73;;;4.90;;
5412;SDS011;2729;50.056;8.678;2023-04-06T12:24:03;8.10;;;4.23;;
5412;SDS011;2729;50.056;8.678;2023-04-06T12:26:29;7.83;;;3.83;;
5412;SDS011;2729;50.056;8.678;2023-04-06T12:28:56;11.80;;;4.93;;
5412;SDS011;2729;50.056;8.678;2023-04-06T12:31:28;8.50;;;5.17;;
5412;SDS011;2729;50.056;8.678;2023-04-06T12:33:54;8.67;;;4.30;;
5412;SDS011;2729;50.056;8.678;2023-04-06T12:36:20;9.33;;;4.57;;
5412;SDS011;2729;50.056;8.678;2023-04-06T12:38:47;8.27;;;5.20;;
5412;SDS011;2729;50.056;8.678;2023-04-06T12:41:14;9.70;;;4.57;;
5412;SDS011;2729;50.056;8.678;2023-04-06T12:43:41;6.17;;;4.40;;
5412;SDS011;2729;50.056;8.678;2023-04-06T12:46:08;11.10;;;4.93;;
5412;SDS011;2729;50.056;8.678;2023-04-06T12:48:34;7.20;;;5.00;;
5412;SDS011;2729;50.056;8.678;2023-04-06T12:51:01;9.00;;;5.17;;
5412;SDS011;2729;50.056;8.678;2023-04-06T12:53:28;12.77;;;5.80;;
5412;SDS011;2729;50.056;8.678;2023-04-06T12:55:54;8.07;;;4.87;;
5412;SDS011;2729;50.056;8.678;2023-04-06T12:58:21;8.30;;;4.70;;
5412;SDS011;2729;50.056;8.678;2023-04-06T13:00:48;8.50;;;4.77;;
5412;SDS011;2729;50.056;8.678;2023-04-06T13:03:16;8.80;;;4.83;;
5412;SDS011;2729;50.056;8.678;2023-04-06T13:05:44;10.70;;;5.10;;
5412;SDS011;2729;50.056;8.678;2023-04-06T13:08:11;15.90;;;5.60;;
5412;SDS011;2729;50.056;8.678;2023-04-06T13:10:38;7.63;;;5.00;;
5412;SDS011;2729;50.056;8.678;2023-04-06T13:13:08;11.50;;;5.57;;
5412;SDS011;2729;50.056;8.678;2023-04-06T13:15:34;8.70;;;5.20;;
5412;SDS011;2729;50.056;8.678;2023-04-06T13:18:02;7.93;;;5.10;;
5412;SDS011;2729;50.056;8.678;2023-04-06T13:20:28;9.20;;;4.83;;
5412;SDS011;2729;50.056;8.678;2023-04-06T13:22:54;4.27;;;3.70;;
5412;SDS011;2729;50.056;8.678;2023-04-06T13:25:20;7.30;;;4.43;;
5412;SDS011;2729;50.056;8.678;2023-04-06T13:27:46;10.90;;;4.60;;
5412;SDS011;2729;50.056;8.678;2023-04-06T13:30:14;4.90;;;3.50;;
5412;SDS011;2729;50.056;8.678;2023-04-06T13:32:40;5.70;;;3.70;;
5412;SDS011;2729;50.056;8.678;2023-04-06T13:35:06;3.20;;;2.60;;
5412;SDS011;2729;50.056;8.678;2023-04-06T13:37:33;8.20;;;5.23;;
5412;SDS011;2729;50.056;8.678;2023-04-06T13:39:59;6.87;;;5.40;;
5412;SDS011;2729;50.056;8.678;2023-04-06T13:42:27;6.73;;;4.67;;
5412;SDS011;2729;50.056;8.678;2023-04-06T13:44:53;7.63;;;5.13;;
5412;SDS011;2729;50.056;8.678;2023-04-06T13:47:19;8.43;;;3.90;;
5412;SDS011;2729;50.056;8.678;2023-04-06T13:49:46;4.47;;;3.20;;
5412;SDS011;2729;50.056;8.678;2023-04-06T13:52:12;6.00;;;4.10;;
5412;SDS011;2729;50.056;8.678;2023-04-06T13:54:39;6.77;;;4.97;;
5412;SDS011;2729;50.056;8.678;2023-04-06T13:57:05;19.30;;;5.10;;
5412;SDS011;2729;50.056;8.678;2023-04-06T13:59:35;5.90;;;3.80;;
5412;SDS011;2729;50.056;8.678;2023-04-06T14:02:07;6.33;;;4.30;;
5412;SDS011;2729;50.056;8.678;2023-04-06T14:04:35;6.70;;;4.30;;
5412;SDS011;2729;50.056;8.678;2023-04-06T14:07:01;3.13;;;2.83;;
5412;SDS011;2729;50.056;8.678;2023-04-06T14:09:28;8.17;;;3.40;;
5412;SDS011;2729;50.056;8.678;2023-04-06T14:11:55;5.50;;;4.30;;
5412;SDS011;2729;50.056;8.678;2023-04-06T14:14:22;5.97;;;4.37;;
5412;SDS011;2729;50.056;8.678;2023-04-06T14:16:48;4.93;;;3.07;;
5412;SDS011;2729;50.056;8.678;2023-04-06T14:19:15;5.63;;;4.30;;
5412;SDS011;2729;50.056;8.678;2023-04-06T14:21:46;5.87;;;4.07;;
5412;SDS011;2729;50.056;8.678;2023-04-06T14:24:15;2.43;;;2.20;;
5412;SDS011;2729;50.056;8.678;2023-04-06T14:26:41;8.40;;;3.10;;
5412;SDS011;2729;50.056;8.678;2023-04-06T14:29:08;6.07;;;4.50;;
5412;SDS011;2729;50.056;8.678;2023-04-06T14:31:35;5.00;;;2.73;;
5412;SDS011;2729;50.056;8.678;2023-04-06T14:34:01;6.27;;;4.00;;
5412;SDS011;2729;50.056;8.678;2023-04-06T14:36:28;6.17;;;3.87;;
5412;SDS011;2729;50.056;8.678;2023-04-06T14:39:02;4.67;;;4.03;;
5412;SDS011;2729;50.056;8.678;2023-04-06T14:41:30;5.10;;;4.17;;
5412;SDS011;2729;50.056;8.678;2023-04-06T14:43:56;5.00;;;3.30;;
5412;SDS011;2729;50.056;8.678;2023-04-06T14:46:22;4.87;;;3.77;;
5412;SDS011;2729;50.056;8.678;2023-04-06T14:48:48;9.60;;;3.53;;
5412;SDS011;2729;50.056;8.678;2023-04-06T14:51:15;7.33;;;4.67;;
5412;SDS011;2729;50.056;8.678;2023-04-06T14:53:41;7.60;;;3.60;;
5412;SDS011;2729;50.056;8.678;2023-04-06T14:56:07;5.60;;;3.60;;
5412;SDS011;2729;50.056;8.678;2023-04-06T14:58:32;3.73;;;3.27;;
5412;SDS011;2729;50.056;8.678;2023-04-06T15:00:59;4.60;;;2.83;;
5412;SDS011;2729;50.056;8.678;2023-04-06T15:03:26;5.33;;;3.10;;
5412;SDS011;2729;50.056;8.678;2023-04-06T15:05:53;3.13;;;2.73;;
5412;SDS011;2729;50.056;8.678;2023-04-06T15:08:20;5.63;;;4.50;;
5412;SDS011;2729;50.056;8.678;2023-04-06T15:10:47;6.67;;;4.13;;
5412;SDS011;2729;50.056;8.678;2023-04-06T15:13:14;11.13;;;4.87;;
5412;SDS011;2729;50.056;8.678;2023-04-06T15:15:40;4.97;;;3.83;;
5412;SDS011;2729;50.056;8.678;2023-04-06T15:18:06;8.30;;;5.20;;
5412;SDS011;2729;50.056;8.678;2023-04-06T15:20:32;7.00;;;4.53;;
5412;SDS011;2729;50.056;8.678;2023-04-06T15:22:58;5.87;;;4.57;;
5412;SDS011;2729;50.056;8.678;2023-04-06T15:25:24;8.63;;;4.10;;
5412;SDS011;2729;50.056;8.678;2023-04-06T15:27:50;4.40;;;3.50;;
5412;SDS011;2729;50.056;8.678;2023-04-06T15:30:16;7.50;;;4.50;;
5412;SDS011;2729;50.056;8.678;2023-04-06T15:32:58;7.40;;;3.90;;